Time;durP1;ratioP1;P1;durP2;ratioP2;P2;SDS_P1;SDS_P2;PMS_P1;PMS_P2;Temp;Humidity;BMP_temperature;BMP_pressure;BME280_temperature;BME280_humidity;BME280_pressure;Samples;Min_cycle;Max_cycle;Signal;HPM_P1;HPM_P2
2021/12/03 00:01:14;;;;;;;4.60;2.35;;;29.20;99.90;;;;;;4997416;28;20019;-70
2021/12/03 00:03:43;;;;;;;9.05;2.97;;;29.40;99.90;;;;;;5025654;28;20030;-68
2021/12/03 00:06:11;;;;;;;2.97;2.55;;;29.40;99.90;;;;;;4996182;28;20113;-69
2021/12/03 00:08:38;;;;;;;5.45;2.67;;;29.30;99.90;;;;;;5014411;28;20061;-68
2021/12/03 00:11:05;;;;;;;6.60;3.00;;;29.40;99.90;;;;;;5000604;28;20444;-68
2021/12/03 00:13:34;;;;;;;6.63;3.45;;;29.40;99.90;;;;;;5009934;28;20046;-68
2021/12/03 00:16:03;;;;;;;14.98;3.75;;;29.00;99.90;;;;;;5029553;28;20019;-67
2021/12/03 00:18:32;;;;;;;7.97;3.30;;;28.70;99.90;;;;;;5010251;28;20034;-68
2021/12/03 00:21:03;;;;;;;7.50;3.10;;;28.50;99.90;;;;;;5014373;28;20041;-68
2021/12/03 00:23:31;;;;;;;12.40;3.05;;;28.10;99.90;;;;;;5009000;28;20023;-69
2021/12/03 00:26:00;;;;;;;6.68;3.47;;;27.80;99.90;;;;;;5013520;28;20033;-68
2021/12/03 00:28:29;;;;;;;16.92;3.85;;;27.50;99.90;;;;;;5010990;28;20038;-68
2021/12/03 00:30:58;;;;;;;13.23;3.40;;;27.10;99.90;;;;;;5010544;28;20037;-68
2021/12/03 00:33:26;;;;;;;10.73;3.42;;;27.00;99.90;;;;;;5012598;28;20038;-69
2021/12/03 00:35:53;;;;;;;8.10;2.75;;;27.10;99.90;;;;;;5009569;28;20027;-69
2021/12/03 00:38:21;;;;;;;7.13;2.30;;;26.60;99.90;;;;;;5006218;28;20031;-68
2021/12/03 00:40:48;;;;;;;8.23;2.03;;;26.10;99.90;;;;;;5012309;28;20049;-68
2021/12/03 00:43:15;;;;;;;3.78;1.55;;;26.10;99.90;;;;;;5010252;28;20094;-69
2021/12/03 00:45:45;;;;;;;6.30;1.90;;;25.60;99.90;;;;;;5013235;28;20030;-68
2021/12/03 00:48:12;;;;;;;5.72;1.55;;;25.60;99.90;;;;;;5010488;28;20022;-69
2021/12/03 00:50:39;;;;;;;5.88;1.70;;;25.40;99.90;;;;;;5011055;28;20062;-68
2021/12/03 00:53:07;;;;;;;11.32;1.92;;;25.20;99.90;;;;;;5012028;28;20006;-68
2021/12/03 00:55:35;;;;;;;14.52;2.28;;;25.00;99.90;;;;;;5010532;28;20057;-68
2021/12/03 00:58:03;;;;;;;12.02;3.08;;;24.90;99.90;;;;;;5012722;28;20247;-68
2021/12/03 01:00:33;;;;;;;15.77;2.90;;;24.70;99.90;;;;;;5013852;28;20045;-68
2021/12/03 01:03:02;;;;;;;14.70;2.92;;;24.80;99.90;;;;;;5014262;28;20030;-68
2021/12/03 01:05:30;;;;;;;10.73;3.03;;;25.00;99.90;;;;;;5009277;28;20022;-68
2021/12/03 01:07:58;;;;;;;14.77;2.72;;;24.60;99.90;;;;;;5006704;28;20034;-68
2021/12/03 01:10:27;;;;;;;13.23;3.70;;;24.60;99.90;;;;;;5009740;28;20030;-68
2021/12/03 01:12:55;;;;;;;16.20;4.03;;;24.60;99.90;;;;;;5007251;28;20034;-68
2021/12/03 01:15:25;;;;;;;12.07;4.20;;;24.60;99.90;;;;;;5024158;28;20102;-68
2021/12/03 01:17:53;;;;;;;14.25;4.53;;;24.60;99.90;;;;;;5008937;28;20022;-69
2021/12/03 01:20:21;;;;;;;15.50;5.15;;;24.70;99.90;;;;;;5008053;28;20038;-68
2021/12/03 01:22:51;;;;;;;15.98;5.25;;;24.50;99.90;;;;;;5009419;28;20065;-68
2021/12/03 01:25:21;;;;;;;16.65;5.53;;;24.70;99.90;;;;;;5009478;28;20069;-69
2021/12/03 01:27:50;;;;;;;10.50;5.00;;;24.50;99.90;;;;;;5010992;28;20018;-67
2021/12/03 01:30:19;;;;;;;18.30;6.53;;;24.30;99.90;;;;;;5007338;28;20034;-70
2021/12/03 01:32:48;;;;;;;20.42;6.80;;;24.00;99.90;;;;;;5006001;28;20026;-66
2021/12/03 01:35:16;;;;;;;22.02;7.55;;;23.80;99.90;;;;;;5023527;28;20042;-68
2021/12/03 01:37:43;;;;;;;22.13;7.28;;;23.90;99.90;;;;;;5001163;28;20034;-69
2021/12/03 01:40:14;;;;;;;17.85;7.65;;;23.80;99.90;;;;;;5005941;28;20038;-69
2021/12/03 01:42:44;;;;;;;15.45;7.20;;;24.10;99.90;;;;;;5004477;28;20083;-69
2021/12/03 01:45:16;;;;;;;20.88;7.68;;;23.90;99.90;;;;;;5005437;28;20026;-68
2021/12/03 01:47:45;;;;;;;19.80;7.82;;;23.90;99.90;;;;;;4997801;28;20019;-69
2021/12/03 01:50:14;;;;;;;19.10;7.30;;;24.10;99.90;;;;;;5028714;28;20048;-68
2021/12/03 01:52:41;;;;;;;22.45;8.15;;;24.00;99.90;;;;;;5009128;28;20031;-69
2021/12/03 01:55:12;;;;;;;17.88;8.52;;;23.90;99.90;;;;;;5014931;28;20118;-66
2021/12/03 01:57:41;;;;;;;32.63;9.38;;;24.10;99.90;;;;;;5008637;28;20060;-68
2021/12/03 02:00:14;;;;;;;25.95;9.27;;;24.20;99.90;;;;;;5028587;28;20034;-68
2021/12/03 02:02:41;;;;;;;19.87;9.20;;;24.30;99.90;;;;;;5009911;28;20020;-69
2021/12/03 02:05:10;;;;;;;18.20;9.50;;;23.90;99.90;;;;;;5006592;28;20022;-69
2021/12/03 02:07:37;;;;;;;25.20;8.93;;;23.80;99.90;;;;;;5008470;28;20035;-68
2021/12/03 02:10:06;;;;;;;22.85;9.98;;;23.80;99.90;;;;;;5008652;28;20038;-68
2021/12/03 02:12:34;;;;;;;18.58;9.32;;;24.10;99.90;;;;;;5009607;28;20034;-69
2021/12/03 02:15:01;;;;;;;28.42;10.68;;;24.10;99.90;;;;;;5010639;28;20053;-70
2021/12/03 02:17:29;;;;;;;18.25;9.48;;;24.10;99.90;;;;;;5008894;28;20030;-69
2021/12/03 02:19:56;;;;;;;24.40;10.40;;;24.10;99.90;;;;;;5008013;28;20026;-69
2021/12/03 02:22:23;;;;;;;35.40;11.38;;;23.80;99.90;;;;;;5011194;28;20026;-67
2021/12/03 02:24:51;;;;;;;21.17;10.57;;;23.70;99.90;;;;;;5009863;28;20034;-68
2021/12/03 02:27:18;;;;;;;24.63;11.07;;;23.70;99.90;;;;;;5008070;28;20037;-69
2021/12/03 02:29:45;;;;;;;24.92;9.38;;;23.80;99.90;;;;;;5009685;28;20049;-70
2021/12/03 02:32:13;;;;;;;32.65;11.25;;;24.00;99.90;;;;;;5008307;28;22617;-68
2021/12/03 02:34:40;;;;;;;30.30;9.40;;;23.80;99.90;;;;;;5006551;28;20030;-69
2021/12/03 02:37:07;;;;;;;22.75;11.00;;;24.00;99.90;;;;;;5008488;28;20052;-68
2021/12/03 02:39:35;;;;;;;25.73;11.85;;;23.70;99.90;;;;;;5006829;28;20121;-69
2021/12/03 02:42:02;;;;;;;30.38;10.35;;;23.70;99.90;;;;;;5005408;28;20491;-70
2021/12/03 02:44:29;;;;;;;28.60;10.88;;;23.80;99.90;;;;;;5008329;28;20090;-69
2021/12/03 02:46:57;;;;;;;28.20;11.77;;;23.90;99.90;;;;;;5007530;28;20041;-69
2021/12/03 02:49:24;;;;;;;22.25;10.75;;;24.00;99.90;;;;;;5019885;28;20026;-68
2021/12/03 02:51:51;;;;;;;29.70;12.40;;;23.70;99.90;;;;;;5004071;28;20050;-68
2021/12/03 02:54:19;;;;;;;31.08;11.30;;;23.80;99.90;;;;;;5000282;28;20034;-66
2021/12/03 02:56:46;;;;;;;28.05;11.38;;;24.00;99.90;;;;;;5016596;28;20053;-67
2021/12/03 02:59:13;;;;;;;33.38;10.98;;;23.90;99.90;;;;;;5020828;28;20038;-67
2021/12/03 03:01:41;;;;;;;31.38;10.25;;;23.50;99.90;;;;;;5019469;28;20034;-68
2021/12/03 03:04:08;;;;;;;37.08;12.05;;;23.40;99.90;;;;;;5011622;28;20030;-67
2021/12/03 03:06:36;;;;;;;34.22;12.00;;;22.90;99.90;;;;;;5015834;28;20351;-66
2021/12/03 03:09:08;;;;;;;31.20;13.65;;;22.80;99.90;;;;;;5015988;28;20046;-66
2021/12/03 03:11:36;;;;;;;32.70;12.02;;;22.80;99.90;;;;;;5014525;28;20080;-67
2021/12/03 03:14:04;;;;;;;36.50;14.65;;;22.70;99.90;;;;;;5016610;28;20052;-66
2021/12/03 03:16:33;;;;;;;30.70;13.00;;;22.50;99.90;;;;;;5012377;28;20037;-66
2021/12/03 03:19:08;;;;;;;30.55;12.95;;;22.50;99.90;;;;;;5017516;28;20026;-66
2021/12/03 03:21:36;;;;;;;36.88;13.95;;;22.40;99.90;;;;;;5011120;28;20061;-69
2021/12/03 03:24:04;;;;;;;56.03;21.92;;;22.50;99.90;;;;;;5008308;28;20027;-67
2021/12/03 03:26:31;;;;;;;36.30;13.82;;;22.70;99.90;;;;;;5009546;28;20037;-67
2021/12/03 03:28:59;;;;;;;44.70;16.83;;;22.40;99.90;;;;;;5010843;28;20022;-67
2021/12/03 03:31:26;;;;;;;28.40;12.88;;;22.70;99.90;;;;;;5010016;28;20113;-67
2021/12/03 03:33:53;;;;;;;32.38;14.85;;;22.80;99.90;;;;;;5006662;28;20045;-67
2021/12/03 03:36:21;;;;;;;31.65;13.15;;;22.50;99.90;;;;;;5011341;28;20469;-66
2021/12/03 03:38:48;;;;;;;33.83;13.48;;;22.20;99.90;;;;;;5011780;28;20022;-71
2021/12/03 03:41:15;;;;;;;33.42;13.60;;;22.30;99.90;;;;;;5012276;28;20090;-67
2021/12/03 03:43:43;;;;;;;39.47;15.32;;;22.10;99.90;;;;;;5009745;28;20050;-70
2021/12/03 03:46:10;;;;;;;31.20;12.32;;;21.90;99.90;;;;;;5015495;28;20014;-65
2021/12/03 03:48:37;;;;;;;27.45;12.52;;;22.20;99.90;;;;;;5014339;28;20026;-66
2021/12/03 03:51:05;;;;;;;30.92;12.88;;;22.20;99.90;;;;;;5026195;28;20010;-67
2021/12/03 03:53:32;;;;;;;31.08;13.70;;;22.10;99.90;;;;;;5024782;28;20156;-68
2021/12/03 03:55:59;;;;;;;37.05;15.02;;;21.90;99.90;;;;;;5016613;28;20121;-67
2021/12/03 03:58:27;;;;;;;34.45;12.88;;;21.80;99.90;;;;;;5019211;28;20097;-68
2021/12/03 04:00:57;;;;;;;39.92;14.57;;;21.60;99.90;;;;;;5015348;28;20030;-68
2021/12/03 04:03:26;;;;;;;54.15;15.85;;;21.20;99.90;;;;;;5028213;28;20074;-67
2021/12/03 04:05:53;;;;;;;36.78;13.10;;;21.20;99.90;;;;;;5016687;28;20044;-66
2021/12/03 04:08:21;;;;;;;36.55;13.10;;;21.30;99.90;;;;;;5018785;28;20030;-70
2021/12/03 04:10:49;;;;;;;48.40;15.43;;;21.00;99.90;;;;;;5013450;28;20041;-66
2021/12/03 04:13:16;;;;;;;33.45;13.10;;;20.90;99.90;;;;;;5027562;28;20054;-68
2021/12/03 04:15:44;;;;;;;44.97;15.10;;;20.90;99.90;;;;;;5029743;28;20845;-67
2021/12/03 04:18:11;;;;;;;48.67;14.75;;;20.70;99.90;;;;;;5032773;28;20018;-67
2021/12/03 04:20:39;;;;;;;38.17;13.80;;;20.40;99.90;;;;;;5010419;28;20034;-67
2021/12/03 04:23:07;;;;;;;46.58;13.05;;;20.40;99.90;;;;;;5003101;28;20026;-68
2021/12/03 04:25:34;;;;;;;39.60;13.25;;;20.60;99.90;;;;;;5002932;28;20054;-67
2021/12/03 04:28:03;;;;;;;32.67;12.57;;;20.50;99.90;;;;;;5043887;28;20002;-66
2021/12/03 04:30:31;;;;;;;42.00;13.35;;;20.40;99.90;;;;;;5019201;28;20014;-66
2021/12/03 04:32:59;;;;;;;44.15;14.35;;;20.50;99.90;;;;;;5010405;28;20057;-67
2021/12/03 04:35:28;;;;;;;43.10;13.50;;;20.40;99.90;;;;;;5013860;28;20091;-66
2021/12/03 04:37:56;;;;;;;42.17;14.07;;;20.20;99.90;;;;;;5013409;28;20074;-66
2021/12/03 04:40:24;;;;;;;44.90;14.23;;;20.10;99.90;;;;;;5002112;28;20022;-67
2021/12/03 04:42:51;;;;;;;44.70;14.45;;;20.10;99.90;;;;;;5009327;28;20056;-67
2021/12/03 04:45:21;;;;;;;46.33;14.98;;;20.10;99.90;;;;;;5010996;28;20090;-67
2021/12/03 04:47:49;;;;;;;52.63;14.57;;;20.20;99.90;;;;;;5012808;28;20655;-67
2021/12/03 04:50:18;;;;;;;36.60;15.38;;;20.10;99.90;;;;;;5028710;28;20382;-67
2021/12/03 04:52:47;;;;;;;40.97;14.65;;;20.00;99.90;;;;;;5007972;28;20065;-68
2021/12/03 04:55:15;;;;;;;49.13;17.52;;;20.00;99.90;;;;;;5005836;28;20035;-68
2021/12/03 04:57:43;;;;;;;37.45;15.95;;;20.10;99.90;;;;;;5006977;28;20027;-67
2021/12/03 05:00:19;;;;;;;42.25;13.50;;;20.00;99.90;;;;;;5008800;28;20062;-66
2021/12/03 05:02:47;;;;;;;37.58;14.40;;;20.00;99.90;;;;;;5009082;28;20086;-67
2021/12/03 05:05:14;;;;;;;33.85;13.10;;;20.10;99.90;;;;;;5006015;28;20148;-67
2021/12/03 05:10:10;;;;;;;45.17;14.70;;;20.00;99.90;;;;;;5006215;28;20042;-68
2021/12/03 05:12:38;;;;;;;39.47;13.57;;;20.00;99.90;;;;;;5010254;28;20030;-68
2021/12/03 05:15:06;;;;;;;40.28;13.85;;;20.00;99.90;;;;;;5013082;28;20070;-67
2021/12/03 05:17:33;;;;;;;39.75;14.68;;;19.90;99.90;;;;;;5007880;28;20057;-67
2021/12/03 05:20:00;;;;;;;37.65;13.90;;;20.00;99.90;;;;;;5007844;28;20030;-67
2021/12/03 05:22:27;;;;;;;44.97;15.88;;;20.00;99.90;;;;;;5019702;28;20006;-67
2021/12/03 05:24:55;;;;;;;34.58;13.00;;;20.00;99.90;;;;;;5030487;28;20027;-67
2021/12/03 05:27:22;;;;;;;37.10;13.60;;;20.00;99.90;;;;;;5029776;28;20046;-66
2021/12/03 05:29:50;;;;;;;43.17;14.60;;;20.00;99.90;;;;;;5016271;28;20033;-66
2021/12/03 05:32:20;;;;;;;29.40;12.00;;;20.20;99.90;;;;;;5019599;28;20022;-67
2021/12/03 05:34:47;;;;;;;36.33;12.38;;;20.20;99.90;;;;;;5014610;28;20194;-67
2021/12/03 05:37:14;;;;;;;40.58;11.10;;;20.30;99.90;;;;;;5016777;28;20037;-67
2021/12/03 05:39:42;;;;;;;41.17;12.10;;;20.40;99.90;;;;;;5022567;28;20045;-67
2021/12/03 05:42:09;;;;;;;37.28;12.32;;;20.40;99.90;;;;;;5026521;28;20058;-67
2021/12/03 05:44:37;;;;;;;36.17;12.27;;;20.40;99.90;;;;;;5024409;28;20038;-67
2021/12/03 05:47:04;;;;;;;32.28;11.75;;;20.20;99.90;;;;;;5031127;28;20023;-67
2021/12/03 05:49:32;;;;;;;36.45;12.93;;;20.10;99.90;;;;;;5013046;28;20033;-67
2021/12/03 05:51:59;;;;;;;33.85;11.85;;;20.10;99.90;;;;;;5008340;28;20113;-67
2021/12/03 05:54:28;;;;;;;37.90;12.20;;;20.10;99.90;;;;;;5006024;28;20030;-68
2021/12/03 05:56:55;;;;;;;38.50;11.35;;;20.10;99.90;;;;;;5005751;28;20030;-67
2021/12/03 05:59:23;;;;;;;35.17;9.45;;;20.10;99.90;;;;;;5007732;28;20088;-67
2021/12/03 06:01:51;;;;;;;36.08;9.82;;;20.00;99.90;;;;;;5012769;28;20025;-67
2021/12/03 06:04:18;;;;;;;31.45;11.07;;;20.00;99.90;;;;;;5028698;28;20072;-66
2021/12/03 06:06:45;;;;;;;37.85;10.93;;;20.00;99.90;;;;;;5008384;28;20025;-67
2021/12/03 06:09:12;;;;;;;40.88;12.15;;;20.00;99.90;;;;;;5011177;28;20038;-67
2021/12/03 06:11:40;;;;;;;40.35;12.75;;;19.90;99.90;;;;;;5025296;28;20049;-67
2021/12/03 06:14:07;;;;;;;42.50;15.38;;;19.80;99.90;;;;;;5012866;28;20046;-67
2021/12/03 06:16:35;;;;;;;35.70;13.65;;;19.90;99.90;;;;;;5015044;28;20006;-67
2021/12/03 06:19:02;;;;;;;30.58;11.80;;;19.80;99.90;;;;;;5011676;28;20027;-67
2021/12/03 06:21:29;;;;;;;37.72;11.40;;;19.80;99.90;;;;;;5012747;28;20513;-67
2021/12/03 06:23:57;;;;;;;40.70;10.73;;;19.80;99.90;;;;;;5009116;28;20033;-67
2021/12/03 06:26:24;;;;;;;37.38;9.93;;;19.80;99.90;;;;;;5004850;28;20097;-67
2021/12/03 06:28:51;;;;;;;40.03;11.73;;;19.80;99.90;;;;;;5005256;28;20019;-67
2021/12/03 06:31:19;;;;;;;45.50;10.57;;;19.80;99.90;;;;;;5034422;28;20014;-66
2021/12/03 06:33:46;;;;;;;29.48;10.15;;;19.80;99.90;;;;;;5016092;28;20034;-66
2021/12/03 06:36:14;;;;;;;40.75;10.45;;;19.70;99.90;;;;;;5015730;28;20032;-66
2021/12/03 06:38:41;;;;;;;36.47;9.02;;;19.60;99.90;;;;;;5016740;28;20074;-65
2021/12/03 06:41:09;;;;;;;38.08;10.43;;;19.40;99.90;;;;;;5003206;28;20038;-66
2021/12/03 06:43:36;;;;;;;43.10;12.80;;;19.50;99.90;;;;;;5014077;28;20030;-66
2021/12/03 06:46:04;;;;;;;35.92;13.82;;;19.70;99.90;;;;;;5015799;28;20030;-66
2021/12/03 06:48:31;;;;;;;40.38;11.15;;;19.80;99.90;;;;;;5009438;28;20030;-67
2021/12/03 06:50:58;;;;;;;26.65;10.07;;;19.70;99.90;;;;;;5012296;28;20110;-67
2021/12/03 06:53:33;;;;;;;35.20;9.10;;;19.60;99.90;;;;;;5002977;28;20042;-67
2021/12/03 06:56:09;;;;;;;34.25;8.63;;;19.60;99.90;;;;;;4993168;28;20387;-66
2021/12/03 06:58:37;;;;;;;33.20;8.98;;;19.60;99.90;;;;;;5016602;28;20038;-67
2021/12/03 07:01:04;;;;;;;39.17;10.52;;;19.60;99.90;;;;;;5002556;28;20038;-67
2021/12/03 07:03:32;;;;;;;36.63;11.10;;;19.60;99.90;;;;;;5006543;28;20034;-67
2021/12/03 07:05:59;;;;;;;40.33;9.93;;;19.70;99.90;;;;;;5004440;28;20089;-67
2021/12/03 07:08:26;;;;;;;33.20;9.82;;;19.70;99.90;;;;;;5023038;28;20023;-67
2021/12/03 07:10:54;;;;;;;39.47;8.95;;;19.60;99.90;;;;;;5010427;28;20036;-66
2021/12/03 07:13:21;;;;;;;42.78;10.32;;;19.60;99.90;;;;;;5006817;28;20054;-67
2021/12/03 07:15:48;;;;;;;30.70;8.57;;;19.50;99.90;;;;;;5002025;28;20517;-67
2021/12/03 07:18:15;;;;;;;34.80;10.15;;;19.60;99.90;;;;;;5005339;28;20026;-66
2021/12/03 07:20:43;;;;;;;45.72;10.30;;;19.50;99.90;;;;;;5005222;28;20117;-67
2021/12/03 07:23:10;;;;;;;37.10;9.27;;;19.40;99.90;;;;;;5004749;28;20026;-67
2021/12/03 07:25:37;;;;;;;39.15;10.10;;;19.40;99.90;;;;;;5006446;28;20033;-66
2021/12/03 07:28:13;;;;;;;38.78;8.43;;;19.40;99.90;;;;;;5004477;28;20022;-68
2021/12/03 07:30:46;;;;;;;32.10;9.07;;;19.40;99.90;;;;;;5009119;28;20026;-67
2021/12/03 07:33:17;;;;;;;34.53;10.30;;;19.40;99.90;;;;;;4999316;28;20045;-67
2021/12/03 07:35:45;;;;;;;38.03;9.52;;;19.40;99.90;;;;;;5008402;28;20036;-67
2021/12/03 07:38:17;;;;;;;39.92;9.48;;;19.30;99.90;;;;;;5005228;28;20130;-68
2021/12/03 07:40:45;;;;;;;37.03;9.43;;;19.20;99.90;;;;;;5005852;28;20042;-67
2021/12/03 07:43:16;;;;;;;37.53;9.35;;;19.20;99.90;;;;;;5005709;28;20364;-67
2021/12/03 07:45:44;;;;;;;33.63;9.82;;;19.20;99.90;;;;;;5006234;28;20023;-67
2021/12/03 07:48:12;;;;;;;36.83;9.50;;;19.10;99.90;;;;;;5012253;28;20019;-66
2021/12/03 07:50:41;;;;;;;40.85;7.97;;;19.10;99.90;;;;;;5005941;28;20034;-67
2021/12/03 07:53:13;;;;;;;31.60;8.38;;;19.10;99.90;;;;;;5008069;28;20022;-67
2021/12/03 07:55:40;;;;;;;37.28;8.93;;;19.10;99.90;;;;;;5008324;28;20022;-67
2021/12/03 07:58:08;;;;;;;33.65;9.30;;;19.10;99.90;;;;;;5006197;28;20054;-67
2021/12/03 08:00:36;;;;;;;32.92;7.72;;;19.10;99.90;;;;;;5009479;28;20041;-67
2021/12/03 08:03:04;;;;;;;30.55;8.25;;;19.10;99.90;;;;;;5008914;28;20037;-67
2021/12/03 08:05:31;;;;;;;33.13;8.45;;;19.00;99.90;;;;;;5007929;28;20391;-67
2021/12/03 08:07:59;;;;;;;37.85;7.80;;;19.10;99.90;;;;;;5009721;28;20037;-67
2021/12/03 08:10:27;;;;;;;38.42;9.93;;;19.00;99.90;;;;;;5010724;28;20066;-67
2021/12/03 08:12:54;;;;;;;27.30;6.75;;;18.80;99.90;;;;;;5005317;28;20027;-67
2021/12/03 08:15:22;;;;;;;26.63;7.05;;;18.80;99.90;;;;;;5005622;28;20037;-67
2021/12/03 08:17:51;;;;;;;30.88;6.95;;;18.80;99.90;;;;;;5002362;28;20494;-67
2021/12/03 08:20:19;;;;;;;30.60;7.70;;;18.80;99.90;;;;;;4997019;28;20034;-67
2021/12/03 08:22:46;;;;;;;36.83;7.18;;;18.80;99.90;;;;;;5013525;28;20026;-67
2021/12/03 08:25:14;;;;;;;32.20;7.63;;;18.70;99.90;;;;;;5014643;28;20034;-67
2021/12/03 08:27:41;;;;;;;34.00;7.72;;;18.60;99.90;;;;;;4998360;28;20057;-67
2021/12/03 08:30:10;;;;;;;24.88;7.00;;;18.70;99.90;;;;;;4994158;28;20113;-66
2021/12/03 08:32:38;;;;;;;21.50;5.38;;;18.60;99.90;;;;;;5001537;28;20486;-67
2021/12/03 08:35:06;;;;;;;32.97;6.10;;;18.50;99.90;;;;;;4996994;28;20077;-68
2021/12/03 08:37:33;;;;;;;25.60;7.38;;;18.50;99.90;;;;;;4994823;28;20109;-67
2021/12/03 08:40:00;;;;;;;25.27;6.43;;;18.40;99.90;;;;;;4996633;28;20027;-67
2021/12/03 08:42:28;;;;;;;27.35;7.40;;;18.40;99.90;;;;;;4996879;28;20030;-67
2021/12/03 08:44:57;;;;;;;35.38;7.85;;;18.40;99.90;;;;;;4996299;28;20048;-67
2021/12/03 08:47:24;;;;;;;26.90;7.57;;;18.40;99.90;;;;;;4995566;28;20082;-68
2021/12/03 08:50:00;;;;;;;27.90;6.68;;;18.40;99.90;;;;;;4996795;28;20061;-67
2021/12/03 08:52:45;;;;;;;26.45;7.32;;;18.40;99.90;;;;;;4995516;28;20109;-68
2021/12/03 08:55:13;;;;;;;23.45;6.35;;;18.50;99.90;;;;;;4994860;28;20090;-68
2021/12/03 08:57:40;;;;;;;24.98;6.85;;;18.40;99.90;;;;;;4998767;28;20027;-67
2021/12/03 09:00:15;;;;;;;24.15;6.40;;;18.40;99.90;;;;;;5014755;28;20113;-68
2021/12/03 09:02:43;;;;;;;22.60;7.07;;;18.40;99.90;;;;;;4998858;28;20100;-68
2021/12/03 09:05:12;;;;;;;25.85;6.32;;;18.40;99.90;;;;;;4999153;28;20026;-69
2021/12/03 09:07:40;;;;;;;34.78;8.65;;;18.40;99.90;;;;;;4991533;28;20035;-68
2021/12/03 09:10:11;;;;;;;27.33;6.53;;;18.40;99.90;;;;;;4998229;28;20030;-68
2021/12/03 09:12:39;;;;;;;21.33;5.57;;;18.40;99.90;;;;;;4997036;28;20031;-68
2021/12/03 09:15:13;;;;;;;27.52;7.13;;;18.40;99.90;;;;;;5009556;28;20434;-68
2021/12/03 09:17:56;;;;;;;25.50;7.18;;;18.40;99.90;;;;;;4997645;28;20113;-68
2021/12/03 09:20:48;;;;;;;31.25;7.68;;;18.40;99.90;;;;;;4999512;28;20038;-68
2021/12/03 09:23:20;;;;;;;36.83;7.78;;;18.40;99.90;;;;;;4993321;28;20070;-68
2021/12/03 09:25:53;;;;;;;28.95;7.72;;;18.40;99.90;;;;;;4995950;28;20088;-68
2021/12/03 09:28:25;;;;;;;24.23;6.55;;;18.40;99.90;;;;;;4991381;28;20030;-68
2021/12/03 09:30:53;;;;;;;26.48;7.60;;;18.50;99.90;;;;;;4997655;28;20478;-68
2021/12/03 09:33:23;;;;;;;34.72;7.43;;;18.50;99.90;;;;;;5014096;28;20033;-68
2021/12/03 09:35:55;;;;;;;31.73;7.97;;;18.50;99.90;;;;;;4997770;28;20085;-68
2021/12/03 09:38:24;;;;;;;26.17;7.35;;;18.50;99.90;;;;;;4998380;28;20545;-68
2021/12/03 09:40:52;;;;;;;27.65;6.85;;;18.30;99.90;;;;;;4997931;28;20537;-68
2021/12/03 09:43:19;;;;;;;31.10;7.00;;;18.30;99.90;;;;;;4991195;28;20140;-68
2021/12/03 09:46:47;;;;;;;33.35;7.57;;;18.30;99.90;;;;;;4997633;28;20367;-68
2021/12/03 09:51:15;;;;;;;25.10;5.90;;;18.40;99.90;;;;;;4998822;28;20038;-68
2021/12/03 09:56:29;;;;;;;25.95;7.00;;;18.30;99.90;;;;;;4990195;28;20132;-67
2021/12/03 10:01:37;;;;;;;22.92;6.15;;;18.40;99.90;;;;;;4998380;28;20038;-68
2021/12/03 10:04:38;;;;;;;25.25;7.72;;;18.50;99.90;;;;;;4997221;28;20026;-68
2021/12/03 10:08:08;;;;;;;29.73;5.30;;;18.50;99.90;;;;;;5008938;28;20039;-68
2021/12/03 10:15:01;;;;;;;32.30;6.25;;;18.50;99.90;;;;;;4998961;28;20112;-68
2021/12/03 10:33:42;;;;;;;29.52;6.15;;;18.60;99.90;;;;;;4998377;28;20041;-67
2021/12/03 10:44:46;;;;;;;27.23;4.50;;;18.60;99.90;;;;;;4979218;28;20027;-67
2021/12/03 10:49:55;;;;;;;22.85;5.70;;;18.70;99.90;;;;;;5000512;28;20026;-67
2021/12/03 10:52:34;;;;;;;19.70;5.75;;;18.70;99.90;;;;;;5000467;28;20030;-68
2021/12/03 11:01:33;;;;;;;21.33;4.20;;;18.70;99.90;;;;;;5000775;28;20072;-66
2021/12/03 11:31:49;;;;;;;25.73;3.95;;;18.60;99.90;;;;;;4999668;28;20034;-68
2021/12/03 12:14:30;;;;;;;24.05;4.32;;;18.50;99.90;;;;;;4993865;28;20080;-68
2021/12/03 12:25:39;;;;;;;;;;;18.40;99.90;;;;;;4993994;28;20129;-68
2021/12/03 12:44:42;;;;;;;14.20;2.92;;;18.50;99.90;;;;;;4999290;28;20041;-68
2021/12/03 12:59:21;;;;;;;14.10;3.05;;;18.40;99.90;;;;;;4998189;28;20045;-68
2021/12/03 13:15:35;;;;;;;14.32;3.00;;;18.40;99.90;;;;;;4931678;29;20133;-68
2021/12/03 13:18:20;;;;;;;21.30;4.38;;;18.40;99.90;;;;;;4983414;28;20038;-69
2021/12/03 14:41:47;;;;;;;21.35;3.95;;;18.30;99.90;;;;;;4999428;28;20403;-67
2021/12/03 14:54:37;;;;;;;26.92;4.10;;;18.30;99.90;;;;;;4998263;28;20038;-68
2021/12/03 14:57:19;;;;;;;33.50;5.53;;;18.30;99.90;;;;;;4997834;28;20029;-68
2021/12/03 15:00:13;;;;;;;27.50;4.05;;;18.30;99.90;;;;;;5005900;28;20105;-69
2021/12/03 15:02:56;;;;;;;30.60;4.43;;;18.30;99.90;;;;;;4998240;28;20109;-67
2021/12/03 15:08:26;;;;;;;25.27;4.38;;;18.30;99.90;;;;;;5006110;28;20045;-66
2021/12/03 15:28:08;;;;;;;23.23;4.78;;;18.30;99.90;;;;;;5003692;28;20037;-67
2021/12/03 15:30:18;;;;;;;24.83;4.63;;;18.30;99.90;;;;;;4995107;28;20046;-67
2021/12/03 15:35:41;;;;;;;28.90;4.00;;;18.30;99.90;;;;;;4997207;28;20085;-67
2021/12/03 15:41:07;;;;;;;18.75;4.10;;;18.20;99.90;;;;;;4998104;28;20105;-67
2021/12/03 15:57:24;;;;;;;30.25;3.95;;;18.20;99.90;;;;;;4997291;28;20517;-67
2021/12/03 16:24:05;;;;;;;22.15;4.70;;;18.20;99.90;;;;;;5000048;28;20041;-67
2021/12/03 16:53:29;;;;;;;26.13;4.53;;;18.10;99.90;;;;;;4996679;28;20066;-67
2021/12/03 16:56:04;;;;;;;28.58;5.15;;;18.10;99.90;;;;;;4997558;28;20458;-67
2021/12/03 16:58:33;;;;;;;24.38;4.80;;;18.20;99.90;;;;;;4992225;28;20149;-68
2021/12/03 17:01:14;;;;;;;24.40;4.57;;;18.20;99.90;;;;;;4996772;28;20045;-68
2021/12/03 17:07:14;;;;;;;26.38;5.45;;;18.20;99.90;;;;;;4999465;28;20491;-68
2021/12/03 17:12:31;;;;;;;22.48;4.78;;;18.20;99.90;;;;;;4998568;28;20518;-67
2021/12/03 17:21:34;;;;;;;31.80;5.17;;;18.20;99.90;;;;;;4959852;29;20047;-68
2021/12/03 17:53:48;;;;;;;23.17;4.03;;;18.10;99.90;;;;;;5000742;28;20479;-68
2021/12/03 17:56:17;;;;;;;21.10;4.97;;;18.00;99.90;;;;;;5001471;28;20034;-68
2021/12/03 17:58:48;;;;;;;26.10;4.10;;;18.00;99.90;;;;;;5003634;28;20049;-68
2021/12/03 18:04:00;;;;;;;15.88;3.63;;;18.00;99.90;;;;;;5000769;28;20026;-68
2021/12/03 18:06:48;;;;;;;25.23;4.13;;;18.00;99.90;;;;;;4993957;28;20482;-68
2021/12/03 18:10:06;;;;;;;16.27;3.55;;;18.00;99.90;;;;;;5001114;28;20034;-68
2021/12/03 18:15:19;;;;;;;15.30;3.47;;;18.00;99.90;;;;;;5001338;28;20093;-69
2021/12/03 18:50:38;;;;;;;15.13;2.67;;;18.00;99.90;;;;;;4999730;28;20124;-68
2021/12/03 18:53:09;;;;;;;14.38;2.72;;;18.00;99.90;;;;;;4997080;28;20494;-68
2021/12/03 18:55:46;;;;;;;11.43;3.03;;;18.00;99.90;;;;;;5000730;28;20083;-68
2021/12/03 18:58:13;;;;;;;13.52;3.08;;;18.00;99.90;;;;;;5015705;28;20054;-68
2021/12/03 19:00:45;;;;;;;9.57;2.35;;;18.10;99.90;;;;;;4997674;28;20033;-68
2021/12/03 19:11:40;;;;;;;9.45;2.13;;;18.10;99.90;;;;;;4984035;28;20491;-68
2021/12/03 19:14:08;;;;;;;13.30;2.13;;;18.00;99.90;;;;;;5015176;28;20050;-68
2021/12/03 19:16:36;;;;;;;9.38;1.88;;;18.10;99.90;;;;;;5001754;28;20041;-68
2021/12/03 19:19:05;;;;;;;9.63;2.05;;;18.10;99.90;;;;;;4996924;28;20472;-68
2021/12/03 19:21:39;;;;;;;7.97;2.50;;;18.10;99.90;;;;;;4998340;28;20543;-68
2021/12/03 19:24:07;;;;;;;7.03;2.20;;;18.10;99.90;;;;;;4997456;28;20025;-68
2021/12/03 19:26:42;;;;;;;10.10;1.92;;;18.10;99.90;;;;;;5006245;28;20394;-67
2021/12/03 19:29:14;;;;;;;9.93;1.95;;;18.20;99.90;;;;;;4990932;28;20090;-66
2021/12/03 19:31:44;;;;;;;6.35;1.65;;;18.20;99.90;;;;;;5012901;28;20034;-67
2021/12/03 19:34:12;;;;;;;6.63;1.50;;;18.10;99.90;;;;;;4997623;28;20030;-66
2021/12/03 19:36:41;;;;;;;7.55;1.65;;;18.10;99.90;;;;;;4999244;28;20027;-67
2021/12/03 19:39:10;;;;;;;7.20;1.70;;;18.10;99.90;;;;;;4997015;28;20096;-68
2021/12/03 19:44:28;;;;;;;5.53;1.10;;;18.00;99.90;;;;;;4995170;28;20038;-67
2021/12/03 19:46:56;;;;;;;5.03;1.17;;;18.00;99.90;;;;;;4998414;28;20046;-68
2021/12/03 19:52:00;;;;;;;4.68;1.05;;;18.00;99.90;;;;;;4995834;28;20043;-68
2021/12/03 19:54:28;;;;;;;6.60;1.17;;;18.00;99.90;;;;;;4998743;28;20022;-67
2021/12/03 19:56:55;;;;;;;5.70;1.30;;;17.90;99.90;;;;;;4995710;28;20026;-67
2021/12/03 19:59:22;;;;;;;6.60;1.33;;;18.00;99.90;;;;;;4997293;28;20080;-68
2021/12/03 20:01:50;;;;;;;6.97;0.93;;;18.00;99.90;;;;;;4997914;28;20110;-67
2021/12/03 20:04:17;;;;;;;5.60;0.90;;;18.00;99.90;;;;;;5001893;28;20038;-68
2021/12/03 20:06:46;;;;;;;5.25;0.77;;;18.00;99.90;;;;;;4999487;28;20638;-68
2021/12/03 20:09:22;;;;;;;5.70;1.50;;;18.10;99.90;;;;;;5001910;28;20023;-68
2021/12/03 20:11:52;;;;;;;4.25;0.88;;;18.10;99.90;;;;;;5003174;28;20026;-68